sensor_id;sensor_type;location;lat;lon;timestamp;pressure;altitude;pressure_sealevel;temperature;humidity
63395;BME280;49531;-34.520;150.798;2022-08-03T00:01:05;100433.78;;;13.97;53.84
63395;BME280;49531;-34.520;150.798;2022-08-03T00:03:32;100434.59;;;13.98;54.72
63395;BME280;49531;-34.520;150.798;2022-08-03T00:05:59;100416.63;;;13.98;54.27
63395;BME280;49531;-34.520;150.798;2022-08-03T00:08:26;100419.03;;;14.00;54.96
63395;BME280;49531;-34.520;150.798;2022-08-03T00:10:53;100409.72;;;14.02;55.05
63395;BME280;49531;-34.520;150.798;2022-08-03T00:13:20;100410.31;;;14.05;55.21
63395;BME280;49531;-34.520;150.798;2022-08-03T00:15:47;100408.22;;;14.07;55.17
63395;BME280;49531;-34.520;150.798;2022-08-03T00:18:14;100398.53;;;14.06;55.28
63395;BME280;49531;-34.520;150.798;2022-08-03T00:20:42;100389.00;;;14.10;55.08
63395;BME280;49531;-34.520;150.798;2022-08-03T00:23:09;100381.75;;;14.10;55.18
63395;BME280;49531;-34.520;150.798;2022-08-03T00:25:37;100382.13;;;14.14;55.47
63395;BME280;49531;-34.520;150.798;2022-08-03T00:28:04;100386.44;;;14.15;55.27
63395;BME280;49531;-34.520;150.798;2022-08-03T00:30:32;100388.09;;;14.16;55.62
63395;BME280;49531;-34.520;150.798;2022-08-03T00:32:59;100386.22;;;14.16;55.82
63395;BME280;49531;-34.520;150.798;2022-08-03T00:35:27;100373.16;;;14.20;56.07
63395;BME280;49531;-34.520;150.798;2022-08-03T00:37:54;100388.00;;;14.22;55.83
63395;BME280;49531;-34.520;150.798;2022-08-03T00:40:21;100387.78;;;14.24;56.54
63395;BME280;49531;-34.520;150.798;2022-08-03T00:42:50;100379.28;;;14.27;56.52
63395;BME280;49531;-34.520;150.798;2022-08-03T00:45:23;100393.31;;;14.29;56.32
63395;BME280;49531;-34.520;150.798;2022-08-03T00:47:51;100388.75;;;14.29;56.34
63395;BME280;49531;-34.520;150.798;2022-08-03T00:50:20;100385.00;;;14.30;55.97
63395;BME280;49531;-34.520;150.798;2022-08-03T00:52:49;100365.97;;;14.32;55.88
63395;BME280;49531;-34.520;150.798;2022-08-03T00:55:17;100358.75;;;14.32;55.91
63395;BME280;49531;-34.520;150.798;2022-08-03T00:57:45;100362.03;;;14.34;55.82
63395;BME280;49531;-34.520;150.798;2022-08-03T01:00:15;100359.13;;;14.36;55.76
63395;BME280;49531;-34.520;150.798;2022-08-03T01:02:43;100348.97;;;14.38;55.84
63395;BME280;49531;-34.520;150.798;2022-08-03T01:05:10;100341.47;;;14.40;55.59
63395;BME280;49531;-34.520;150.798;2022-08-03T01:10:31;100336.84;;;14.47;55.78
63395;BME280;49531;-34.520;150.798;2022-08-03T01:13:09;100336.97;;;14.52;56.17
63395;BME280;49531;-34.520;150.798;2022-08-03T01:16:32;100338.16;;;14.56;56.05
63395;BME280;49531;-34.520;150.798;2022-08-03T01:24:34;100308.16;;;14.71;56.35
63395;BME280;49531;-34.520;150.798;2022-08-03T01:27:17;100286.78;;;14.76;56.44
63395;BME280;49531;-34.520;150.798;2022-08-03T01:35:14;100284.91;;;14.88;56.75
63395;BME280;49531;-34.520;150.798;2022-08-03T01:38:03;100273.44;;;14.93;56.82
63395;BME280;49531;-34.520;150.798;2022-08-03T01:40:33;100277.09;;;14.98;56.93
63395;BME280;49531;-34.520;150.798;2022-08-03T01:43:03;100272.06;;;15.02;57.10
63395;BME280;49531;-34.520;150.798;2022-08-03T01:45:32;100257.91;;;15.07;56.97
63395;BME280;49531;-34.520;150.798;2022-08-03T01:48:00;100259.91;;;15.11;57.10
63395;BME280;49531;-34.520;150.798;2022-08-03T01:50:30;100257.56;;;15.15;57.27
63395;BME280;49531;-34.520;150.798;2022-08-03T01:52:59;100260.31;;;15.20;57.38
63395;BME280;49531;-34.520;150.798;2022-08-03T01:55:29;100249.91;;;15.23;57.31
63395;BME280;49531;-34.520;150.798;2022-08-03T01:57:58;100239.28;;;15.28;57.34
63395;BME280;49531;-34.520;150.798;2022-08-03T02:00:26;100223.47;;;15.32;57.57
63395;BME280;49531;-34.520;150.798;2022-08-03T02:02:53;100217.63;;;15.35;57.50
63395;BME280;49531;-34.520;150.798;2022-08-03T02:05:22;100210.72;;;15.39;57.49
63395;BME280;49531;-34.520;150.798;2022-08-03T02:07:51;100211.88;;;15.43;57.60
63395;BME280;49531;-34.520;150.798;2022-08-03T02:10:20;100203.06;;;15.48;57.65
63395;BME280;49531;-34.520;150.798;2022-08-03T02:12:48;100188.31;;;15.50;57.69
63395;BME280;49531;-34.520;150.798;2022-08-03T02:15:17;100194.06;;;15.54;57.78
63395;BME280;49531;-34.520;150.798;2022-08-03T02:17:46;100184.47;;;15.58;57.77
63395;BME280;49531;-34.520;150.798;2022-08-03T02:20:15;100176.47;;;15.63;57.97
63395;BME280;49531;-34.520;150.798;2022-08-03T02:22:43;100172.47;;;15.65;57.98
63395;BME280;49531;-34.520;150.798;2022-08-03T02:25:13;100173.38;;;15.71;57.98
63395;BME280;49531;-34.520;150.798;2022-08-03T02:27:50;100167.53;;;15.74;58.00
63395;BME280;49531;-34.520;150.798;2022-08-03T02:30:18;100168.69;;;15.78;57.99
63395;BME280;49531;-34.520;150.798;2022-08-03T02:32:53;100159.06;;;15.82;58.12
63395;BME280;49531;-34.520;150.798;2022-08-03T02:35:23;100154.81;;;15.86;58.03
63395;BME280;49531;-34.520;150.798;2022-08-03T02:37:57;100150.59;;;15.90;58.07
63395;BME280;49531;-34.520;150.798;2022-08-03T02:40:27;100146.59;;;15.93;58.03
63395;BME280;49531;-34.520;150.798;2022-08-03T02:43:01;100137.78;;;15.97;57.96
63395;BME280;49531;-34.520;150.798;2022-08-03T02:45:31;100129.19;;;16.00;57.92
63395;BME280;49531;-34.520;150.798;2022-08-03T02:48:03;100117.94;;;16.04;57.98
63395;BME280;49531;-34.520;150.798;2022-08-03T02:50:33;100121.78;;;16.08;57.96
63395;BME280;49531;-34.520;150.798;2022-08-03T02:53:02;100113.19;;;16.11;57.99
63395;BME280;49531;-34.520;150.798;2022-08-03T02:55:30;100110.84;;;16.14;57.95
63395;BME280;49531;-34.520;150.798;2022-08-03T02:58:00;100106.84;;;16.17;58.05
63395;BME280;49531;-34.520;150.798;2022-08-03T03:00:30;100094.50;;;16.21;57.96
63395;BME280;49531;-34.520;150.798;2022-08-03T03:03:01;100089.44;;;16.24;58.02
63395;BME280;49531;-34.520;150.798;2022-08-03T03:05:30;100092.44;;;16.28;58.00
63395;BME280;49531;-34.520;150.798;2022-08-03T03:07:58;100087.38;;;16.31;58.03
63395;BME280;49531;-34.520;150.798;2022-08-03T03:10:25;100082.31;;;16.35;57.75
63395;BME280;49531;-34.520;150.798;2022-08-03T03:12:55;100081.00;;;16.38;58.18
63395;BME280;49531;-34.520;150.798;2022-08-03T03:15:24;100076.72;;;16.42;58.34
63395;BME280;49531;-34.520;150.798;2022-08-03T03:17:52;100065.44;;;16.45;58.27
63395;BME280;49531;-34.520;150.798;2022-08-03T03:20:23;100065.78;;;16.48;58.17
63395;BME280;49531;-34.520;150.798;2022-08-03T03:22:51;100060.94;;;16.50;58.12
63395;BME280;49531;-34.520;150.798;2022-08-03T03:25:18;100054.81;;;16.55;58.30
63395;BME280;49531;-34.520;150.798;2022-08-03T03:27:47;100049.75;;;16.58;58.20
63395;BME280;49531;-34.520;150.798;2022-08-03T03:30:14;100045.47;;;16.62;58.25
63395;BME280;49531;-34.520;150.798;2022-08-03T03:32:42;100050.41;;;16.65;58.28
63395;BME280;49531;-34.520;150.798;2022-08-03T03:35:09;100056.38;;;16.67;58.22
63395;BME280;49531;-34.520;150.798;2022-08-03T03:37:37;100045.06;;;16.71;58.21
63395;BME280;49531;-34.520;150.798;2022-08-03T03:40:04;100049.72;;;16.75;58.34
63395;BME280;49531;-34.520;150.798;2022-08-03T03:42:34;100030.59;;;16.77;58.21
63395;BME280;49531;-34.520;150.798;2022-08-03T03:45:04;100033.84;;;16.79;58.26
63395;BME280;49531;-34.520;150.798;2022-08-03T03:47:33;100025.22;;;16.82;58.18
63395;BME280;49531;-34.520;150.798;2022-08-03T03:50:04;100022.03;;;16.85;58.22
63395;BME280;49531;-34.520;150.798;2022-08-03T03:52:32;100035.81;;;16.88;58.29
63395;BME280;49531;-34.520;150.798;2022-08-03T03:55:00;100024.53;;;16.91;58.28
63395;BME280;49531;-34.520;150.798;2022-08-03T03:57:27;100029.69;;;16.93;58.30
63395;BME280;49531;-34.520;150.798;2022-08-03T03:59:54;100018.63;;;16.94;58.19
63395;BME280;49531;-34.520;150.798;2022-08-03T04:02:21;100019.50;;;17.00;58.43
63395;BME280;49531;-34.520;150.798;2022-08-03T04:04:48;100026.28;;;17.03;58.28
63395;BME280;49531;-34.520;150.798;2022-08-03T04:07:54;100018.50;;;17.06;58.18
63395;BME280;49531;-34.520;150.798;2022-08-03T04:10:47;100025.00;;;17.10;58.31
63395;BME280;49531;-34.520;150.798;2022-08-03T04:16:29;100030.75;;;17.46;58.73
63395;BME280;49531;-34.520;150.798;2022-08-03T04:19:07;100027.31;;;17.55;58.47
63395;BME280;49531;-34.520;150.798;2022-08-03T04:21:37;100027.91;;;17.62;58.43
63395;BME280;49531;-34.520;150.798;2022-08-03T04:24:08;100029.91;;;17.72;58.42
63395;BME280;49531;-34.520;150.798;2022-08-03T04:26:39;100029.38;;;17.75;58.19
63395;BME280;49531;-34.520;150.798;2022-08-03T04:29:08;100031.56;;;17.78;58.19
63395;BME280;49531;-34.520;150.798;2022-08-03T04:31:37;100025.09;;;17.79;58.24
63395;BME280;49531;-34.520;150.798;2022-08-03T04:34:06;100031.06;;;17.81;58.22
63395;BME280;49531;-34.520;150.798;2022-08-03T04:36:37;100027.28;;;17.82;58.00
63395;BME280;49531;-34.520;150.798;2022-08-03T04:39:15;100020.56;;;17.85;58.01
63395;BME280;49531;-34.520;150.798;2022-08-03T04:41:44;100024.88;;;17.86;58.17
63395;BME280;49531;-34.520;150.798;2022-08-03T04:44:13;100019.22;;;17.87;58.00
63395;BME280;49531;-34.520;150.798;2022-08-03T04:46:41;100008.16;;;17.89;57.77
63395;BME280;49531;-34.520;150.798;2022-08-03T04:49:09;100015.19;;;17.90;57.97
63395;BME280;49531;-34.520;150.798;2022-08-03T04:51:37;100003.06;;;17.92;57.83
63395;BME280;49531;-34.520;150.798;2022-08-03T04:54:06;99998.19;;;17.94;57.78
63395;BME280;49531;-34.520;150.798;2022-08-03T04:56:33;100000.66;;;17.96;57.79
63395;BME280;49531;-34.520;150.798;2022-08-03T04:59:00;99997.69;;;17.97;57.66
63395;BME280;49531;-34.520;150.798;2022-08-03T05:01:28;100007.13;;;18.00;57.71
63395;BME280;49531;-34.520;150.798;2022-08-03T05:03:55;99992.53;;;18.01;57.64
63395;BME280;49531;-34.520;150.798;2022-08-03T05:06:22;99993.09;;;18.03;57.81
63395;BME280;49531;-34.520;150.798;2022-08-03T05:08:49;99992.84;;;18.05;57.54
63395;BME280;49531;-34.520;150.798;2022-08-03T05:11:16;99995.03;;;18.08;57.75
63395;BME280;49531;-34.520;150.798;2022-08-03T05:13:44;99989.34;;;18.09;57.66
63395;BME280;49531;-34.520;150.798;2022-08-03T05:16:11;99981.00;;;18.11;57.70
63395;BME280;49531;-34.520;150.798;2022-08-03T05:18:40;99979.91;;;18.12;57.79
63395;BME280;49531;-34.520;150.798;2022-08-03T05:21:08;99983.97;;;18.14;57.68
63395;BME280;49531;-34.520;150.798;2022-08-03T05:23:36;99984.53;;;18.16;57.68
63395;BME280;49531;-34.520;150.798;2022-08-03T05:26:03;99985.09;;;18.18;57.78
63395;BME280;49531;-34.520;150.798;2022-08-03T05:28:30;99984.81;;;18.20;57.78
63395;BME280;49531;-34.520;150.798;2022-08-03T05:30:57;99973.19;;;18.19;57.65
63395;BME280;49531;-34.520;150.798;2022-08-03T05:33:24;99975.38;;;18.22;57.80
63395;BME280;49531;-34.520;150.798;2022-08-03T05:35:52;99977.81;;;18.24;57.65
63395;BME280;49531;-34.520;150.798;2022-08-03T05:38:19;99972.97;;;18.26;57.77
63395;BME280;49531;-34.520;150.798;2022-08-03T05:40:46;99970.00;;;18.27;57.74
63395;BME280;49531;-34.520;150.798;2022-08-03T05:43:13;99975.69;;;18.31;58.08
63395;BME280;49531;-34.520;150.798;2022-08-03T05:45:40;99965.97;;;18.35;58.09
63395;BME280;49531;-34.520;150.798;2022-08-03T05:48:07;99964.91;;;18.36;58.10
63395;BME280;49531;-34.520;150.798;2022-08-03T05:50:34;99962.78;;;18.48;58.33
63395;BME280;49531;-34.520;150.798;2022-08-03T05:53:02;99971.75;;;18.59;58.05
63395;BME280;49531;-34.520;150.798;2022-08-03T05:55:29;99976.13;;;18.65;57.90
63395;BME280;49531;-34.520;150.798;2022-08-03T05:57:56;99964.78;;;18.73;57.61
63395;BME280;49531;-34.520;150.798;2022-08-03T06:00:23;99974.25;;;18.81;57.65
63395;BME280;49531;-34.520;150.798;2022-08-03T06:02:50;99967.78;;;18.87;57.43
63395;BME280;49531;-34.520;150.798;2022-08-03T06:05:17;99968.34;;;18.94;57.27
63395;BME280;49531;-34.520;150.798;2022-08-03T06:07:44;99972.69;;;19.00;57.17
63395;BME280;49531;-34.520;150.798;2022-08-03T06:10:12;99975.41;;;19.05;56.97
63395;BME280;49531;-34.520;150.798;2022-08-03T06:12:38;99964.59;;;19.10;56.82
63395;BME280;49531;-34.520;150.798;2022-08-03T06:15:07;99976.50;;;19.14;56.97
63395;BME280;49531;-34.520;150.798;2022-08-03T06:17:41;99976.19;;;19.21;56.77
63395;BME280;49531;-34.520;150.798;2022-08-03T06:20:10;99969.72;;;19.27;56.66
63395;BME280;49531;-34.520;150.798;2022-08-03T06:22:37;99971.88;;;19.30;56.43
63395;BME280;49531;-34.520;150.798;2022-08-03T06:25:04;99965.38;;;19.36;56.66
63395;BME280;49531;-34.520;150.798;2022-08-03T06:27:32;99965.66;;;19.40;56.62
63395;BME280;49531;-34.520;150.798;2022-08-03T06:29:59;99959.97;;;19.46;56.52
63395;BME280;49531;-34.520;150.798;2022-08-03T06:32:26;99962.16;;;19.49;56.93
63395;BME280;49531;-34.520;150.798;2022-08-03T06:34:53;99962.44;;;19.53;56.99
63395;BME280;49531;-34.520;150.798;2022-08-03T06:37:20;99963.81;;;19.55;57.14
63395;BME280;49531;-34.520;150.798;2022-08-03T06:39:48;99974.09;;;19.58;57.85
63395;BME280;49531;-34.520;150.798;2022-08-03T06:42:15;99963.50;;;19.62;57.58
63395;BME280;49531;-34.520;150.798;2022-08-03T06:44:42;99970.53;;;19.63;57.55
63395;BME280;49531;-34.520;150.798;2022-08-03T06:47:09;99969.47;;;19.69;58.23
63395;BME280;49531;-34.520;150.798;2022-08-03T06:49:36;99972.72;;;19.71;58.26
63395;BME280;49531;-34.520;150.798;2022-08-03T06:52:04;99970.81;;;19.72;58.13
63395;BME280;49531;-34.520;150.798;2022-08-03T06:54:31;99972.97;;;19.75;57.99
63395;BME280;49531;-34.520;150.798;2022-08-03T06:56:58;99974.31;;;19.77;57.85
63395;BME280;49531;-34.520;150.798;2022-08-03T06:59:25;99979.47;;;19.79;57.87
63395;BME280;49531;-34.520;150.798;2022-08-03T07:01:52;99980.81;;;19.81;57.58
63395;BME280;49531;-34.520;150.798;2022-08-03T07:04:19;99984.06;;;19.83;57.57
63395;BME280;49531;-34.520;150.798;2022-08-03T07:06:46;99990.84;;;19.86;57.54
63395;BME280;49531;-34.520;150.798;2022-08-03T07:09:13;99990.84;;;19.86;57.47
63395;BME280;49531;-34.520;150.798;2022-08-03T07:11:40;99984.34;;;19.87;57.69
63395;BME280;49531;-34.520;150.798;2022-08-03T07:14:07;99994.09;;;19.88;57.58
63395;BME280;49531;-34.520;150.798;2022-08-03T07:16:34;100003.84;;;19.89;57.46
63395;BME280;49531;-34.520;150.798;2022-08-03T07:19:01;100007.09;;;19.91;57.36
63395;BME280;49531;-34.520;150.798;2022-08-03T07:21:28;100009.53;;;19.92;57.36
63395;BME280;49531;-34.520;150.798;2022-08-03T07:23:55;100012.78;;;19.94;57.23
63395;BME280;49531;-34.520;150.798;2022-08-03T07:26:22;100022.56;;;19.95;57.16
63395;BME280;49531;-34.520;150.798;2022-08-03T07:28:49;100030.69;;;19.95;57.17
63395;BME280;49531;-34.520;150.798;2022-08-03T07:31:16;100022.56;;;19.95;57.03
63395;BME280;49531;-34.520;150.798;2022-08-03T07:33:43;100034.22;;;19.96;56.97
63395;BME280;49531;-34.520;150.798;2022-08-03T07:36:10;100040.44;;;19.96;57.00
63395;BME280;49531;-34.520;150.798;2022-08-03T07:38:37;100041.25;;;19.97;57.11
63395;BME280;49531;-34.520;150.798;2022-08-03T07:41:04;100042.06;;;19.97;57.11
63395;BME280;49531;-34.520;150.798;2022-08-03T07:43:31;100037.47;;;19.98;56.97
63395;BME280;49531;-34.520;150.798;2022-08-03T07:45:58;100042.88;;;19.98;57.03
63395;BME280;49531;-34.520;150.798;2022-08-03T07:48:25;100043.69;;;19.98;56.77
63395;BME280;49531;-34.520;150.798;2022-08-03T07:50:52;100051.81;;;19.98;57.10
63395;BME280;49531;-34.520;150.798;2022-08-03T07:53:19;100053.72;;;19.98;56.75
63395;BME280;49531;-34.520;150.798;2022-08-03T07:55:46;100055.34;;;19.99;56.65
63395;BME280;49531;-34.520;150.798;2022-08-03T07:58:13;100058.06;;;19.99;56.61
63395;BME280;49531;-34.520;150.798;2022-08-03T08:00:43;100066.97;;;19.99;56.60
63395;BME280;49531;-34.520;150.798;2022-08-03T08:03:10;100071.31;;;20.01;56.63
63395;BME280;49531;-34.520;150.798;2022-08-03T08:05:39;100069.69;;;19.99;56.70
63395;BME280;49531;-34.520;150.798;2022-08-03T08:08:06;100072.41;;;19.99;56.64
63395;BME280;49531;-34.520;150.798;2022-08-03T08:10:34;100078.63;;;20.00;56.64
63395;BME280;49531;-34.520;150.798;2022-08-03T08:13:02;100082.44;;;19.99;56.63
63395;BME280;49531;-34.520;150.798;2022-08-03T08:15:29;100098.72;;;19.99;56.57
63395;BME280;49531;-34.520;150.798;2022-08-03T08:17:59;100098.41;;;20.01;56.40
63395;BME280;49531;-34.520;150.798;2022-08-03T08:20:29;100093.28;;;19.99;56.63
63395;BME280;49531;-34.520;150.798;2022-08-03T08:23:00;100104.91;;;19.99;56.47
63395;BME280;49531;-34.520;150.798;2022-08-03T08:25:29;100104.13;;;19.99;56.49
63395;BME280;49531;-34.520;150.798;2022-08-03T08:27:56;100110.66;;;19.98;56.56
63395;BME280;49531;-34.520;150.798;2022-08-03T08:30:26;100110.91;;;19.96;56.58
63395;BME280;49531;-34.520;150.798;2022-08-03T08:32:53;100116.34;;;19.96;56.52
63395;BME280;49531;-34.520;150.798;2022-08-03T08:35:21;100116.34;;;19.96;56.54
63395;BME280;49531;-34.520;150.798;2022-08-03T08:37:48;100118.22;;;19.96;56.47
63395;BME280;49531;-34.520;150.798;2022-08-03T08:40:15;100128.25;;;19.95;56.47
63395;BME280;49531;-34.520;150.798;2022-08-03T08:42:43;100126.63;;;19.94;56.46
63395;BME280;49531;-34.520;150.798;2022-08-03T08:45:10;100125.00;;;19.93;56.29
63395;BME280;49531;-34.520;150.798;2022-08-03T08:47:40;100123.38;;;19.92;56.27
63395;BME280;49531;-34.520;150.798;2022-08-03T08:50:10;100126.09;;;19.92;56.21
63395;BME280;49531;-34.520;150.798;2022-08-03T08:52:40;100132.59;;;19.91;56.22
63395;BME280;49531;-34.520;150.798;2022-08-03T08:55:09;100130.16;;;19.90;56.21
63395;BME280;49531;-34.520;150.798;2022-08-03T08:57:49;100131.22;;;19.89;56.12
63395;BME280;49531;-34.520;150.798;2022-08-03T09:00:18;100136.91;;;19.87;56.27
63395;BME280;49531;-34.520;150.798;2022-08-03T09:02:45;100130.41;;;19.83;56.11
63395;BME280;49531;-34.520;150.798;2022-08-03T09:05:17;100138.00;;;19.86;56.10
63395;BME280;49531;-34.520;150.798;2022-08-03T09:07:46;100136.38;;;19.85;56.11
63395;BME280;49531;-34.520;150.798;2022-08-03T09:10:15;100132.84;;;19.85;55.97
63395;BME280;49531;-34.520;150.798;2022-08-03T09:12:51;100138.53;;;19.83;55.91
63395;BME280;49531;-34.520;150.798;2022-08-03T09:15:25;100139.63;;;19.82;55.99
63395;BME280;49531;-34.520;150.798;2022-08-03T09:17:55;100142.59;;;19.81;55.86
63395;BME280;49531;-34.520;150.798;2022-08-03T09:20:24;100147.47;;;19.79;55.80
63395;BME280;49531;-34.520;150.798;2022-08-03T09:22:56;100141.25;;;19.78;55.82
63395;BME280;49531;-34.520;150.798;2022-08-03T09:25:34;100133.66;;;19.75;55.90
63395;BME280;49531;-34.520;150.798;2022-08-03T09:28:10;100151.00;;;19.74;55.87
63395;BME280;49531;-34.520;150.798;2022-08-03T09:30:39;100140.16;;;19.74;55.95
63395;BME280;49531;-34.520;150.798;2022-08-03T09:33:11;100145.84;;;19.73;55.76
63395;BME280;49531;-34.520;150.798;2022-08-03T09:35:41;100141.50;;;19.72;55.65
63395;BME280;49531;-34.520;150.798;2022-08-03T09:40:40;100132.81;;;19.70;55.55
63395;BME280;49531;-34.520;150.798;2022-08-03T09:43:08;100128.75;;;19.67;55.51
63395;BME280;49531;-34.520;150.798;2022-08-03T09:45:36;100128.75;;;19.67;55.55
63395;BME280;49531;-34.520;150.798;2022-08-03T09:48:24;100125.50;;;19.65;55.52
63395;BME280;49531;-34.520;150.798;2022-08-03T09:50:57;100120.34;;;19.63;55.66
63395;BME280;49531;-34.520;150.798;2022-08-03T09:53:25;100126.03;;;19.62;55.47
63395;BME280;49531;-34.520;150.798;2022-08-03T09:58:26;100114.16;;;19.58;55.53
63395;BME280;49531;-34.520;150.798;2022-08-03T10:01:04;100119.56;;;19.58;55.57
63395;BME280;49531;-34.520;150.798;2022-08-03T10:03:36;100121.72;;;19.56;55.53
63395;BME280;49531;-34.520;150.798;2022-08-03T10:06:19;100114.69;;;19.55;55.55
63395;BME280;49531;-34.520;150.798;2022-08-03T10:09:07;100115.75;;;19.54;55.34
63395;BME280;49531;-34.520;150.798;2022-08-03T10:11:36;100120.63;;;19.52;55.37
63395;BME280;49531;-34.520;150.798;2022-08-03T10:14:06;100127.13;;;19.51;55.41
63395;BME280;49531;-34.520;150.798;2022-08-03T10:16:38;100139.00;;;19.50;55.21
63395;BME280;49531;-34.520;150.798;2022-08-03T10:19:07;100126.56;;;19.49;55.57
63395;BME280;49531;-34.520;150.798;2022-08-03T10:21:39;100122.47;;;19.46;55.56
63395;BME280;49531;-34.520;150.798;2022-08-03T10:24:08;100133.56;;;19.45;55.37
63395;BME280;49531;-34.520;150.798;2022-08-03T10:26:39;100137.63;;;19.42;55.36
63395;BME280;49531;-34.520;150.798;2022-08-03T10:29:11;100142.22;;;19.42;55.36
63395;BME280;49531;-34.520;150.798;2022-08-03T10:31:45;100140.59;;;19.41;55.50
63395;BME280;49531;-34.520;150.798;2022-08-03T10:34:18;100144.41;;;19.40;55.59
63395;BME280;49531;-34.520;150.798;2022-08-03T10:36:49;100144.66;;;19.38;55.44
63395;BME280;49531;-34.520;150.798;2022-08-03T10:39:21;100153.03;;;19.37;55.60
63395;BME280;49531;-34.520;150.798;2022-08-03T10:41:50;100148.72;;;19.36;55.49
63395;BME280;49531;-34.520;150.798;2022-08-03T10:44:20;100152.50;;;19.35;55.36
63395;BME280;49531;-34.520;150.798;2022-08-03T10:46:49;100154.41;;;19.34;55.34
63395;BME280;49531;-34.520;150.798;2022-08-03T10:49:20;100163.84;;;19.31;55.58
63395;BME280;49531;-34.520;150.798;2022-08-03T10:51:47;100149.78;;;19.29;55.44
63395;BME280;49531;-34.520;150.798;2022-08-03T10:57:42;100157.34;;;19.27;55.62
63395;BME280;49531;-34.520;150.798;2022-08-03T11:00:09;100153.28;;;19.25;55.65
63395;BME280;49531;-34.520;150.798;2022-08-03T11:03:02;100157.06;;;19.24;55.59
63395;BME280;49531;-34.520;150.798;2022-08-03T11:05:37;100159.22;;;19.22;55.58
63395;BME280;49531;-34.520;150.798;2022-08-03T11:08:24;100161.09;;;19.21;55.69
63395;BME280;49531;-34.520;150.798;2022-08-03T11:10:54;100171.38;;;19.19;55.75
63395;BME280;49531;-34.520;150.798;2022-08-03T11:13:23;100164.38;;;19.18;55.65
63395;BME280;49531;-34.520;150.798;2022-08-03T11:15:53;100159.22;;;19.17;55.76
63395;BME280;49531;-34.520;150.798;2022-08-03T11:18:20;100158.41;;;19.16;55.89
63395;BME280;49531;-34.520;150.798;2022-08-03T11:20:59;100160.56;;;19.14;55.80
63395;BME280;49531;-34.520;150.798;2022-08-03T11:23:52;100165.44;;;19.12;55.79
63395;BME280;49531;-34.520;150.798;2022-08-03T11:26:19;100173.81;;;19.11;55.88
63395;BME280;49531;-34.520;150.798;2022-08-03T11:28:48;100164.88;;;19.10;55.92
63395;BME280;49531;-34.520;150.798;2022-08-03T11:34:05;100169.19;;;19.06;56.04
63395;BME280;49531;-34.520;150.798;2022-08-03T11:37:33;100165.94;;;19.04;56.02
63395;BME280;49531;-34.520;150.798;2022-08-03T11:39:42;100167.81;;;19.04;56.06
63395;BME280;49531;-34.520;150.798;2022-08-03T11:44:50;100172.94;;;19.00;56.09
63395;BME280;49531;-34.520;150.798;2022-08-03T11:47:19;100165.91;;;18.99;56.01
63395;BME280;49531;-34.520;150.798;2022-08-03T11:49:47;100173.47;;;18.97;56.01
63395;BME280;49531;-34.520;150.798;2022-08-03T11:52:16;100169.13;;;18.96;56.23
63395;BME280;49531;-34.520;150.798;2022-08-03T11:54:45;100172.91;;;18.95;56.33
63395;BME280;49531;-34.520;150.798;2022-08-03T11:57:29;100165.31;;;18.92;56.17
63395;BME280;49531;-34.520;150.798;2022-08-03T11:59:56;100167.22;;;18.91;56.22
63395;BME280;49531;-34.520;150.798;2022-08-03T12:02:23;100166.41;;;18.91;56.38
63395;BME280;49531;-34.520;150.798;2022-08-03T12:04:52;100171.25;;;18.89;56.42
63395;BME280;49531;-34.520;150.798;2022-08-03T12:07:19;100184.78;;;18.89;56.34
63395;BME280;49531;-34.520;150.798;2022-08-03T12:10:08;100188.84;;;18.86;56.17
63395;BME280;49531;-34.520;150.798;2022-08-03T12:12:37;100169.34;;;18.84;56.27
63395;BME280;49531;-34.520;150.798;2022-08-03T12:15:05;100185.00;;;18.82;56.21
63395;BME280;49531;-34.520;150.798;2022-08-03T12:17:38;100172.56;;;18.81;56.43
63395;BME280;49531;-34.520;150.798;2022-08-03T12:20:08;100182.88;;;18.79;56.26
63395;BME280;49531;-34.520;150.798;2022-08-03T12:22:39;100175.81;;;18.78;56.25
63395;BME280;49531;-34.520;150.798;2022-08-03T12:25:07;100180.41;;;18.78;56.24
63395;BME280;49531;-34.520;150.798;2022-08-03T12:27:35;100175.28;;;18.76;56.41
63395;BME280;49531;-34.520;150.798;2022-08-03T12:30:03;100163.06;;;18.74;56.33
63395;BME280;49531;-34.520;150.798;2022-08-03T12:32:30;100166.03;;;18.72;56.50
63395;BME280;49531;-34.520;150.798;2022-08-03T12:34:58;100159.81;;;18.72;56.42
63395;BME280;49531;-34.520;150.798;2022-08-03T12:37:30;100162.78;;;18.70;56.55
63395;BME280;49531;-34.520;150.798;2022-08-03T12:39:59;100169.28;;;18.69;56.60
63395;BME280;49531;-34.520;150.798;2022-08-03T12:42:31;100160.59;;;18.67;56.61
63395;BME280;49531;-34.520;150.798;2022-08-03T12:44:58;100160.84;;;18.65;56.67
63395;BME280;49531;-34.520;150.798;2022-08-03T12:47:25;100153.81;;;18.64;56.66
63395;BME280;49531;-34.520;150.798;2022-08-03T12:49:52;100143.53;;;18.61;56.93
63395;BME280;49531;-34.520;150.798;2022-08-03T12:52:21;100156.78;;;18.63;56.81
63395;BME280;49531;-34.520;150.798;2022-08-03T12:54:56;100159.75;;;18.61;56.82
63395;BME280;49531;-34.520;150.798;2022-08-03T12:57:23;100171.66;;;18.60;56.54
63395;BME280;49531;-34.520;150.798;2022-08-03T12:59:50;100165.66;;;18.58;56.62
63395;BME280;49531;-34.520;150.798;2022-08-03T13:02:25;100158.59;;;18.57;56.76
63395;BME280;49531;-34.520;150.798;2022-08-03T13:04:53;100149.94;;;18.55;56.61
63395;BME280;49531;-34.520;150.798;2022-08-03T13:07:21;100159.13;;;18.54;56.76